Time;durP1;ratioP1;P1;durP2;ratioP2;P2;SDS_P1;SDS_P2;PMS_P1;PMS_P2;Temp;Humidity;BMP_temperature;BMP_pressure;BME280_temperature;BME280_humidity;BME280_pressure;Samples;Min_cycle;Max_cycle;Signal;HPM_P1;HPM_P2
2021/06/22 00:00:26;;;;;;;14.88;4.70;;;;;;;14.91;79.49;99847.03;5036601;28;20451;-77
2021/06/22 00:02:53;;;;;;;6.05;4.70;;;;;;;14.93;79.73;99841.53;5036968;28;20409;-77
2021/06/22 00:05:21;;;;;;;7.50;4.57;;;;;;;15.05;79.34;99856.59;5037027;28;20347;-77
2021/06/22 00:07:53;;;;;;;6.53;4.32;;;;;;;15.01;79.54;99860.53;5037111;28;20076;-76
2021/06/22 00:10:25;;;;;;;7.03;4.70;;;;;;;15.05;79.43;99848.53;5035963;28;20080;-77
2021/06/22 00:12:52;;;;;;;5.85;4.25;;;;;;;15.10;79.25;99856.22;5036730;28;20099;-77
2021/06/22 00:15:22;;;;;;;9.70;4.82;;;;;;;15.11;79.13;99849.00;5036562;28;20107;-76
2021/06/22 00:17:50;;;;;;;7.15;4.80;;;;;;;15.14;79.01;99841.50;5036657;28;20053;-77
2021/06/22 00:20:18;;;;;;;11.88;5.45;;;;;;;15.14;79.14;99838.00;5024612;28;20069;-76
2021/06/22 00:22:45;;;;;;;8.27;6.30;;;;;;;15.17;78.58;99845.78;5016687;28;20045;-77
2021/06/22 00:25:13;;;;;;;10.18;6.00;;;;;;;15.14;78.93;99854.13;5017885;28;20049;-76
2021/06/22 00:27:40;;;;;;;8.65;6.10;;;;;;;14.91;79.70;99849.72;5017075;28;20053;-77
2021/06/22 00:30:08;;;;;;;12.65;6.68;;;;;;;14.93;79.08;99839.69;5016745;28;20124;-77
2021/06/22 00:32:35;;;;;;;11.43;6.40;;;;;;;14.91;79.74;99851.53;5016740;28;20046;-78
2021/06/22 00:35:03;;;;;;;10.13;5.70;;;;;;;14.95;79.93;99847.63;5016998;28;20049;-78
2021/06/22 00:37:30;;;;;;;8.82;5.40;;;;;;;15.01;79.93;99849.78;5016530;28;20104;-77
2021/06/22 00:39:57;;;;;;;7.95;5.05;;;;;;;15.03;79.84;99853.19;5016647;28;20042;-77
2021/06/22 00:42:24;;;;;;;6.40;4.78;;;;;;;15.01;80.27;99855.16;5016770;28;20145;-78
2021/06/22 00:44:57;;;;;;;12.15;5.38;;;;;;;14.92;80.12;99858.59;5016422;28;20112;-76
2021/06/22 00:47:24;;;;;;;9.50;5.15;;;;;;;14.93;80.56;99854.97;5017181;28;20058;-75
2021/06/22 00:49:52;;;;;;;11.27;5.32;;;;;;;14.96;80.45;99854.69;5016540;28;20046;-78
2021/06/22 00:52:25;;;;;;;9.52;5.07;;;;;;;14.91;80.61;99857.78;5017189;28;20083;-77
2021/06/22 00:54:52;;;;;;;10.00;5.55;;;;;;;14.78;80.46;99851.72;5016302;28;20494;-76
2021/06/22 00:57:19;;;;;;;10.85;5.88;;;;;;;14.78;80.74;99860.63;5017361;28;20305;-78
2021/06/22 00:59:47;;;;;;;14.52;6.82;;;;;;;14.76;81.08;99880.56;5017050;28;20085;-78
2021/06/22 01:02:15;;;;;;;9.25;6.50;;;;;;;14.79;81.20;99878.47;5015933;28;20054;-78
2021/06/22 01:04:42;;;;;;;11.65;6.85;;;;;;;14.70;81.64;99875.66;5016495;28;20050;-77
2021/06/22 01:07:12;;;;;;;14.27;7.03;;;;;;;14.73;81.46;99870.03;5019155;28;20054;-78
2021/06/22 01:09:38;;;;;;;11.80;6.78;;;;;;;14.71;81.34;99878.19;5017578;28;20093;-77
2021/06/22 01:12:06;;;;;;;10.93;6.53;;;;;;;14.77;81.32;99880.41;5015123;28;20415;-77
2021/06/22 01:14:33;;;;;;;11.00;6.78;;;;;;;14.82;81.70;99868.44;5016001;28;20053;-77
2021/06/22 01:17:00;;;;;;;9.23;6.18;;;;;;;14.77;81.26;99864.28;5015840;28;20049;-78
2021/06/22 01:19:29;;;;;;;11.23;6.80;;;;;;;14.69;81.70;99860.50;5020046;28;20050;-77
2021/06/22 01:21:56;;;;;;;12.55;7.28;;;;;;;14.78;81.60;99866.00;5034465;28;20390;-75
2021/06/22 01:24:27;;;;;;;10.98;7.13;;;;;;;14.80;81.70;99882.00;5035567;28;20092;-79
2021/06/22 01:26:57;;;;;;;12.13;7.32;;;;;;;14.82;81.48;99880.03;5035436;28;20053;-77
2021/06/22 01:29:24;;;;;;;14.55;8.40;;;;;;;14.73;81.63;99878.94;5035346;28;20107;-76
2021/06/22 01:31:52;;;;;;;14.38;8.07;;;;;;;14.74;81.31;99882.50;5035281;28;20068;-79
2021/06/22 01:34:23;;;;;;;11.85;7.93;;;;;;;14.76;81.40;99885.94;5034548;28;20111;-78
2021/06/22 01:36:50;;;;;;;14.48;8.43;;;;;;;14.78;81.06;99863.31;5034539;28;20175;-78
2021/06/22 01:39:17;;;;;;;13.43;8.50;;;;;;;14.72;81.17;99863.81;5035419;28;20049;-78
2021/06/22 01:41:44;;;;;;;16.38;8.93;;;;;;;14.70;81.20;99868.44;5035262;28;20132;-76
2021/06/22 01:44:10;;;;;;;14.95;9.30;;;;;;;14.62;81.01;99865.53;5035536;28;20377;-77
2021/06/22 01:46:37;;;;;;;13.77;9.02;;;;;;;14.61;81.48;99870.06;5035292;28;20068;-78
2021/06/22 01:49:05;;;;;;;16.63;10.10;;;;;;;14.59;81.52;99863.97;5035528;28;20197;-77
2021/06/22 01:51:32;;;;;;;15.00;9.52;;;;;;;14.60;80.61;99859.47;5035495;28;20099;-76
2021/06/22 01:54:00;;;;;;;15.50;8.77;;;;;;;14.68;80.80;99867.72;5034169;28;20103;-77
2021/06/22 01:56:29;;;;;;;14.15;8.52;;;;;;;14.70;80.77;99838.91;5034156;28;20076;-78
2021/06/22 01:59:00;;;;;;;16.02;10.15;;;;;;;14.64;80.19;99852.84;5033935;28;20057;-79
2021/06/22 02:01:27;;;;;;;17.70;10.17;;;;;;;14.63;80.26;99859.19;5035036;28;20111;-78
2021/06/22 02:03:54;;;;;;;17.65;10.50;;;;;;;14.66;80.12;99865.16;5035107;28;20442;-79
2021/06/22 02:06:20;;;;;;;17.48;12.15;;;;;;;14.57;80.35;99865.94;5036417;28;20045;-78
2021/06/22 02:08:47;;;;;;;25.75;13.93;;;;;;;14.50;80.11;99852.16;5024705;28;20371;-78
2021/06/22 02:11:14;;;;;;;24.30;15.75;;;;;;;14.44;79.82;99852.66;5040691;28;20088;-77
2021/06/22 02:13:41;;;;;;;29.20;17.02;;;;;;;14.36;79.65;99860.50;5041463;28;20057;-77
2021/06/22 02:16:07;;;;;;;25.52;15.95;;;;;;;14.44;79.55;99851.81;5046844;28;20103;-78
2021/06/22 02:18:34;;;;;;;26.33;15.68;;;;;;;14.38;79.46;99851.34;5046565;28;20359;-77
2021/06/22 02:21:03;;;;;;;25.20;15.05;;;;;;;14.23;79.64;99845.38;5028100;28;20046;-77
2021/06/22 02:23:29;;;;;;;26.05;14.00;;;;;;;14.25;79.67;99843.44;5019946;28;20324;-76
2021/06/22 02:25:56;;;;;;;21.48;12.35;;;;;;;14.25;79.60;99848.81;5035245;28;20367;-77
2021/06/22 02:28:23;;;;;;;20.67;12.77;;;;;;;14.25;79.07;99848.81;5026696;28;20128;-77
2021/06/22 02:30:50;;;;;;;21.42;12.82;;;;;;;14.23;79.00;99853.44;5025907;28;20077;-78
2021/06/22 02:33:17;;;;;;;21.73;12.40;;;;;;;14.16;79.24;99851.38;5024326;28;20057;-77
2021/06/22 02:35:44;;;;;;;18.85;11.82;;;;;;;14.15;79.08;99865.78;5019747;28;20049;-77
2021/06/22 02:38:12;;;;;;;16.50;10.90;;;;;;;14.11;78.62;99867.88;5018572;28;20058;-77
2021/06/22 02:40:39;;;;;;;16.33;10.88;;;;;;;14.12;78.90;99862.34;5019329;28;20046;-78
2021/06/22 02:43:06;;;;;;;21.13;11.35;;;;;;;14.24;78.59;99865.91;5019247;28;20104;-79
2021/06/22 02:45:34;;;;;;;17.60;9.82;;;;;;;14.20;78.46;99867.13;5034567;28;20083;-78
2021/06/22 02:48:02;;;;;;;19.17;10.02;;;;;;;14.17;78.21;99869.19;5018972;28;20054;-78
2021/06/22 02:50:29;;;;;;;17.88;10.52;;;;;;;14.26;78.00;99866.63;5018104;28;20049;-77
2021/06/22 02:52:56;;;;;;;16.13;9.55;;;;;;;14.25;78.19;99867.59;5019145;28;20053;-78
2021/06/22 02:55:23;;;;;;;19.08;10.50;;;;;;;14.19;77.44;99870.78;5019003;28;20379;-78
2021/06/22 02:57:53;;;;;;;21.75;10.63;;;;;;;14.13;77.51;99865.91;5019040;28;20054;-77
2021/06/22 03:00:23;;;;;;;14.90;10.70;;;;;;;14.16;77.25;99859.44;5018610;28;20538;-77
2021/06/22 03:02:50;;;;;;;22.17;9.45;;;;;;;14.15;77.77;99871.16;5033462;28;20080;-78
2021/06/22 03:05:18;;;;;;;14.23;8.88;;;;;;;14.21;77.05;99870.63;5018730;28;20112;-76
2021/06/22 03:07:47;;;;;;;16.42;9.35;;;;;;;14.16;77.43;99857.59;5018258;28;20071;-77
2021/06/22 03:10:17;;;;;;;18.25;9.25;;;;;;;14.23;77.59;99874.91;5018014;28;20077;-77
2021/06/22 03:12:44;;;;;;;12.80;7.00;;;;;;;14.30;76.68;99880.66;5034267;28;20186;-78
2021/06/22 03:15:13;;;;;;;17.98;7.57;;;;;;;14.22;76.66;99873.19;5018515;28;20050;-78
2021/06/22 03:17:39;;;;;;;16.20;6.88;;;;;;;14.28;77.10;99890.66;5018371;28;20355;-77
2021/06/22 03:20:09;;;;;;;13.32;5.78;;;;;;;14.29;76.34;99894.19;5027647;28;20433;-78
2021/06/22 03:22:36;;;;;;;13.45;5.63;;;;;;;14.30;76.63;99903.94;5038433;28;20409;-78
2021/06/22 03:25:05;;;;;;;8.93;4.95;;;;;;;14.30;76.61;99906.63;5037487;28;20445;-77
2021/06/22 03:27:31;;;;;;;10.82;5.53;;;;;;;14.30;76.92;99910.16;5037877;28;20056;-77
2021/06/22 03:29:58;;;;;;;10.68;5.00;;;;;;;14.17;75.86;99894.19;5037767;28;20053;-79
2021/06/22 03:32:25;;;;;;;13.18;5.45;;;;;;;14.24;75.81;99897.25;5037890;28;20049;-78
2021/06/22 03:34:55;;;;;;;11.40;4.57;;;;;;;14.20;75.69;99902.00;5038014;28;20054;-79
2021/06/22 03:37:22;;;;;;;5.75;3.88;;;;;;;14.16;75.72;99911.28;5037883;28;20053;-79
2021/06/22 03:39:49;;;;;;;11.50;4.82;;;;;;;14.18;76.01;99914.72;5037521;28;20049;-79
2021/06/22 03:42:15;;;;;;;7.32;4.45;;;;;;;14.18;75.18;99913.84;5037588;28;20405;-77
2021/06/22 03:44:42;;;;;;;10.40;4.97;;;;;;;14.06;76.01;99921.06;5037628;28;20183;-79
2021/06/22 03:47:09;;;;;;;8.60;5.43;;;;;;;14.09;76.36;99927.03;5036193;28;20100;-79
2021/06/22 03:49:35;;;;;;;10.90;5.30;;;;;;;14.04;76.85;99933.72;5036251;28;20057;-78
2021/06/22 03:52:02;;;;;;;19.55;6.85;;;;;;;14.06;77.20;99937.16;5037294;28;20347;-78
2021/06/22 03:54:29;;;;;;;13.38;6.28;;;;;;;14.02;76.94;99951.78;5037072;28;20080;-77
2021/06/22 03:56:55;;;;;;;12.20;6.32;;;;;;;13.82;77.75;99951.50;5036293;28;20439;-77
2021/06/22 03:59:25;;;;;;;10.68;6.40;;;;;;;13.67;77.57;99922.25;5036985;28;20057;-77
2021/06/22 04:01:51;;;;;;;14.30;6.20;;;;;;;13.85;77.68;99962.84;5036730;28;20054;-78
2021/06/22 04:04:18;;;;;;;14.77;6.10;;;;;;;13.93;78.10;99964.09;5037255;28;20057;-78
2021/06/22 04:06:45;;;;;;;16.85;6.50;;;;;;;13.85;77.57;99970.06;5037185;28;20109;-77
2021/06/22 04:09:11;;;;;;;13.48;6.35;;;;;;;13.86;77.09;99966.41;5036837;28;20045;-79
2021/06/22 04:11:38;;;;;;;14.05;6.68;;;;;;;13.93;77.40;99970.31;5036874;28;20386;-78
2021/06/22 04:14:04;;;;;;;12.95;6.13;;;;;;;13.81;77.06;99976.63;5035934;28;20057;-78
2021/06/22 04:16:31;;;;;;;10.65;6.05;;;;;;;13.87;76.90;99970.78;5036634;28;20439;-77
2021/06/22 04:18:58;;;;;;;10.85;5.70;;;;;;;13.87;76.98;99959.19;5036441;28;20082;-77
2021/06/22 04:21:24;;;;;;;13.20;5.57;;;;;;;13.94;76.68;99971.19;5016727;28;20053;-77
2021/06/22 04:23:51;;;;;;;14.40;5.65;;;;;;;13.82;76.82;99973.84;5016816;28;20452;-77
2021/06/22 04:26:18;;;;;;;13.15;6.32;;;;;;;13.80;77.50;99970.44;5016547;28;20058;-77
2021/06/22 04:28:44;;;;;;;15.88;6.47;;;;;;;13.73;77.78;99957.59;5015490;28;20104;-76
2021/06/22 04:31:11;;;;;;;13.57;6.18;;;;;;;13.60;78.91;99963.03;5015925;28;20054;-77
2021/06/22 04:33:39;;;;;;;14.15;6.30;;;;;;;13.47;81.23;99957.78;5016658;28;20057;-77
2021/06/22 04:36:06;;;;;;;16.58;6.85;;;;;;;13.35;80.73;99971.09;5015786;28;20050;-77
2021/06/22 04:38:33;;;;;;;14.43;6.50;;;;;;;13.22;81.35;99960.47;5016639;28;20194;-77
2021/06/22 04:41:00;;;;;;;12.93;6.45;;;;;;;13.21;82.83;99963.25;5016410;28;20372;-78
2021/06/22 04:43:27;;;;;;;12.80;6.45;;;;;;;13.25;82.77;99970.13;5016352;28;20058;-77
2021/06/22 04:45:53;;;;;;;16.45;6.57;;;;;;;13.14;83.97;99950.31;5016519;28;20065;-76
2021/06/22 04:48:20;;;;;;;13.85;6.35;;;;;;;13.17;83.60;99958.16;5016572;28;20443;-76
2021/06/22 04:50:46;;;;;;;14.45;6.82;;;;;;;13.06;84.44;99942.03;5015538;28;20050;-78
2021/06/22 04:53:13;;;;;;;18.55;7.07;;;;;;;13.14;85.67;99957.53;5016438;28;20052;-78
2021/06/22 04:55:40;;;;;;;19.73;7.32;;;;;;;13.10;87.46;99951.53;5016471;28;20046;-78
2021/06/22 04:58:06;;;;;;;15.80;7.00;;;;;;;12.90;86.51;99955.69;5016114;28;20057;-78
2021/06/22 05:00:33;;;;;;;21.88;7.68;;;;;;;12.93;88.48;99970.69;5016021;28;20058;-77
2021/06/22 05:03:00;;;;;;;13.02;6.80;;;;;;;12.90;89.92;99972.63;5016374;28;20058;-78
2021/06/22 05:05:27;;;;;;;15.48;7.93;;;;;;;12.86;90.90;99971.13;5015957;28;20443;-78
2021/06/22 05:07:54;;;;;;;18.05;8.73;;;;;;;12.79;91.92;99975.25;5015951;28;20131;-79
2021/06/22 05:10:21;;;;;;;17.45;8.70;;;;;;;12.59;90.69;99984.75;5014848;28;20085;-77
2021/06/22 05:12:48;;;;;;;18.92;8.02;;;;;;;12.54;91.99;99965.47;5015927;28;20444;-77
2021/06/22 05:15:18;;;;;;;20.45;8.38;;;;;;;12.53;91.34;99980.66;5015095;28;20128;-75
2021/06/22 05:17:46;;;;;;;21.02;8.68;;;;;;;12.53;94.10;99978.00;5016105;28;20068;-76
2021/06/22 05:20:12;;;;;;;15.32;8.13;;;;;;;12.52;94.33;99978.13;5026919;28;20053;-76
2021/06/22 05:22:39;;;;;;;17.98;8.95;;;;;;;12.48;95.97;99980.16;5035581;28;20045;-72
2021/06/22 05:25:06;;;;;;;18.48;8.50;;;;;;;12.53;96.33;99985.19;5027439;28;20049;-74
2021/06/22 05:27:33;;;;;;;21.90;10.48;;;;;;;12.40;95.19;99982.50;5025034;28;20058;-71
2021/06/22 05:30:00;;;;;;;15.80;8.25;;;;;;;12.39;95.83;99989.72;5023919;28;20068;-79
2021/06/22 05:32:27;;;;;;;15.38;8.80;;;;;;;12.52;97.99;99991.50;5025420;28;20070;-74
2021/06/22 05:34:53;;;;;;;18.23;9.45;;;;;;;12.57;99.67;99992.88;5023910;28;20100;-73
2021/06/22 05:37:20;;;;;;;18.90;9.50;;;;;;;12.58;96.81;99989.22;5024612;28;20346;-73
2021/06/22 05:39:48;;;;;;;17.92;9.70;;;;;;;12.60;97.49;99989.97;5025132;28;20049;-72
2021/06/22 05:42:15;;;;;;;19.65;10.02;;;;;;;12.60;98.40;99984.59;5022717;28;20112;-73
2021/06/22 05:44:43;;;;;;;21.15;10.13;;;;;;;12.68;98.58;99969.84;5031791;28;20100;-74
2021/06/22 05:47:10;;;;;;;19.80;9.55;;;;;;;12.71;98.46;99980.31;5024313;28;20099;-74
2021/06/22 05:49:37;;;;;;;21.48;10.70;;;;;;;12.80;97.59;99978.78;5024808;28;20054;-75
2021/06/22 05:52:04;;;;;;;19.55;9.95;;;;;;;12.73;96.56;99975.69;5024343;28;20042;-73
2021/06/22 05:54:31;;;;;;;20.15;11.27;;;;;;;12.62;97.96;99963.97;5024349;28;20100;-72
2021/06/22 05:56:58;;;;;;;24.85;11.40;;;;;;;12.69;97.77;99968.88;5025654;28;20100;-76
2021/06/22 05:59:24;;;;;;;21.95;11.73;;;;;;;12.48;97.85;99956.91;5024559;28;20042;-70
2021/06/22 06:01:51;;;;;;;21.83;12.02;;;;;;;12.49;96.75;99955.94;5023639;28;20045;-73
2021/06/22 06:04:18;;;;;;;18.88;13.00;;;;;;;12.53;97.30;99967.28;5025813;28;20076;-74
2021/06/22 06:06:44;;;;;;;26.80;13.60;;;;;;;12.55;98.29;99964.50;5022568;28;20077;-81
2021/06/22 06:09:12;;;;;;;20.50;14.35;;;;;;;12.41;98.41;99941.44;5020530;28;20045;-75
2021/06/22 06:11:38;;;;;;;24.85;14.68;;;;;;;12.57;97.32;99971.47;5026562;28;20064;-74
2021/06/22 06:14:05;;;;;;;24.40;14.23;;;;;;;12.58;97.09;99975.00;5025140;28;20046;-76
2021/06/22 06:16:32;;;;;;;26.70;15.15;;;;;;;12.61;97.79;99970.28;5025696;28;20156;-77
2021/06/22 06:18:58;;;;;;;25.48;15.43;;;;;;;12.61;97.69;99972.97;5020069;28;20054;-75
2021/06/22 06:21:25;;;;;;;22.73;16.67;;;;;;;12.61;96.53;99989.03;5034393;28;20419;-74
2021/06/22 06:23:56;;;;;;;25.38;18.27;;;;;;;12.55;96.66;99978.75;5034725;28;20095;-73
2021/06/22 06:26:25;;;;;;;34.95;19.02;;;;;;;12.64;98.63;99982.56;5033118;28;20141;-72
2021/06/22 06:28:54;;;;;;;25.63;17.77;;;;;;;12.66;97.09;99985.13;5034189;28;20324;-73
2021/06/22 06:31:21;;;;;;;31.42;19.50;;;;;;;12.73;98.12;99981.91;5033808;28;20076;-71
2021/06/22 06:33:49;;;;;;;26.65;17.73;;;;;;;12.70;96.77;99975.94;5034769;28;20091;-72
2021/06/22 06:36:16;;;;;;;27.25;18.45;;;;;;;12.71;97.22;99983.00;5033753;28;20440;-73
2021/06/22 06:38:42;;;;;;;27.80;18.23;;;;;;;12.73;97.67;99984.59;5034589;28;20107;-71
2021/06/22 06:41:09;;;;;;;27.73;19.52;;;;;;;12.73;97.68;99978.38;5017199;28;20100;-73
2021/06/22 06:43:36;;;;;;;28.35;20.08;;;;;;;12.73;97.40;99997.13;5017617;28;20083;-71
2021/06/22 06:46:03;;;;;;;25.02;19.65;;;;;;;12.77;98.97;99986.06;5034670;28;20060;-73
2021/06/22 06:48:30;;;;;;;30.45;20.20;;;;;;;12.81;97.42;99992.03;5032627;28;20081;-73
2021/06/22 06:50:56;;;;;;;28.92;20.88;;;;;;;12.85;98.49;99996.22;5030266;28;20057;-73
2021/06/22 06:53:23;;;;;;;25.65;20.58;;;;;;;12.93;97.15;100005.50;5031749;28;20087;-72
2021/06/22 06:55:50;;;;;;;26.33;20.25;;;;;;;12.85;96.47;100001.56;5034219;28;20085;-73
2021/06/22 06:58:16;;;;;;;30.02;21.33;;;;;;;12.99;97.16;100013.09;5033337;28;20103;-74
2021/06/22 07:00:45;;;;;;;26.15;20.63;;;;;;;13.00;96.57;100015.69;5035764;28;20060;-72
2021/06/22 07:03:11;;;;;;;27.05;20.63;;;;;;;12.96;97.01;100024.91;5036866;28;20099;-73
2021/06/22 07:05:38;;;;;;;28.65;18.73;;;;;;;12.96;96.91;100022.22;5038249;28;20074;-72
2021/06/22 07:08:05;;;;;;;28.00;20.70;;;;;;;13.06;96.12;100035.78;5037932;28;20049;-74
2021/06/22 07:10:33;;;;;;;29.17;19.50;;;;;;;13.17;96.14;100033.19;5037843;28;20049;-74
2021/06/22 07:13:04;;;;;;;21.83;18.58;;;;;;;13.11;95.71;100022.91;5037918;28;20053;-72
2021/06/22 07:15:32;;;;;;;25.92;20.33;;;;;;;13.10;95.54;100036.41;5037770;28;20067;-73
2021/06/22 07:17:59;;;;;;;27.92;19.40;;;;;;;13.11;95.94;100038.13;5036873;28;20128;-72
2021/06/22 07:20:26;;;;;;;27.55;19.92;;;;;;;13.08;96.23;100033.84;5034083;28;20049;-73
2021/06/22 07:22:53;;;;;;;25.40;19.27;;;;;;;13.07;96.01;100023.25;5037773;28;20045;-72
2021/06/22 07:25:20;;;;;;;29.95;21.15;;;;;;;13.21;95.85;100030.25;5037885;28;20053;-72
2021/06/22 07:27:48;;;;;;;23.42;19.05;;;;;;;13.15;95.83;100018.19;5037596;28;20084;-74
2021/06/22 07:30:16;;;;;;;25.77;17.52;;;;;;;13.19;94.77;100027.72;5037491;28;20115;-73
2021/06/22 07:32:43;;;;;;;21.10;18.15;;;;;;;13.17;94.97;100038.53;5037610;28;20095;-73
2021/06/22 07:35:11;;;;;;;25.13;18.65;;;;;;;13.30;93.63;100043.00;5037459;28;20057;-73
2021/06/22 07:37:40;;;;;;;23.38;18.77;;;;;;;13.33;95.74;100034.72;5036370;28;20355;-71
2021/06/22 07:40:08;;;;;;;21.52;18.05;;;;;;;13.32;94.71;100030.31;5037624;28;20062;-73
2021/06/22 07:42:36;;;;;;;20.55;16.65;;;;;;;13.27;93.53;100027.13;5037376;28;20041;-72
2021/06/22 07:45:04;;;;;;;19.90;16.35;;;;;;;13.25;93.24;100037.13;5037178;28;20060;-72
2021/06/22 07:47:31;;;;;;;22.25;16.08;;;;;;;13.29;94.16;100038.59;5037138;28;20054;-74
2021/06/22 07:49:59;;;;;;;20.77;14.77;;;;;;;13.33;92.24;100042.75;5036987;28;20130;-74
2021/06/22 07:52:25;;;;;;;19.10;14.10;;;;;;;13.26;92.84;100033.47;5036122;28;20061;-71
2021/06/22 07:54:52;;;;;;;18.50;14.82;;;;;;;13.33;93.16;100053.47;5037094;28;20053;-73
2021/06/22 07:57:19;;;;;;;19.35;14.43;;;;;;;13.25;93.22;100034.44;5036886;28;20053;-73
2021/06/22 07:59:45;;;;;;;17.40;14.02;;;;;;;13.37;94.39;100049.59;5036225;28;20049;-72
2021/06/22 08:02:12;;;;;;;17.27;13.60;;;;;;;13.46;93.67;100040.06;5035600;28;20065;-72
2021/06/22 08:04:39;;;;;;;17.67;13.27;;;;;;;13.58;93.55;100040.94;5036760;28;20103;-73
2021/06/22 08:07:05;;;;;;;15.68;10.30;;;;;;;13.58;91.55;100041.78;5037204;28;20049;-73
2021/06/22 08:09:32;;;;;;;18.92;11.75;;;;;;;13.66;93.07;100041.22;5036819;28;20060;-75
2021/06/22 08:12:00;;;;;;;14.35;10.98;;;;;;;13.70;92.85;100031.97;5035465;28;20584;-74
2021/06/22 08:14:27;;;;;;;14.52;10.07;;;;;;;13.69;91.82;100030.25;5036861;28;20076;-74
2021/06/22 08:16:53;;;;;;;12.80;9.57;;;;;;;13.64;91.71;100032.44;5036687;28;20103;-74
2021/06/22 08:19:20;;;;;;;19.90;10.25;;;;;;;13.60;93.02;100032.78;5035392;28;20350;-73
2021/06/22 08:21:47;;;;;;;15.02;9.73;;;;;;;13.57;90.58;100026.69;5031719;28;20095;-76
2021/06/22 08:24:14;;;;;;;18.23;9.57;;;;;;;13.50;92.56;100012.03;5016713;28;20108;-77
2021/06/22 08:26:40;;;;;;;14.77;7.93;;;;;;;13.71;89.92;100030.13;5017043;28;20123;-77
2021/06/22 08:29:07;;;;;;;12.90;7.60;;;;;;;13.77;91.31;100028.81;5034920;28;20099;-77
2021/06/22 08:31:34;;;;;;;11.90;6.90;;;;;;;13.73;90.19;100032.72;5035719;28;20049;-77
2021/06/22 08:34:01;;;;;;;14.00;7.45;;;;;;;13.81;89.28;100030.28;5036398;28;20053;-77
2021/06/22 08:36:27;;;;;;;9.50;6.10;;;;;;;13.75;89.14;100044.16;5035067;28;20056;-77
2021/06/22 08:38:54;;;;;;;11.77;6.35;;;;;;;13.72;89.71;100042.56;5036362;28;20053;-77
2021/06/22 08:41:26;;;;;;;11.32;5.70;;;;;;;13.77;87.52;100039.56;5036524;28;20059;-78
2021/06/22 08:43:55;;;;;;;11.98;5.40;;;;;;;13.84;90.41;100041.63;5036225;28;20374;-78
2021/06/22 08:46:22;;;;;;;10.63;4.65;;;;;;;13.93;87.40;100048.13;5036689;28;20065;-77
2021/06/22 08:48:50;;;;;;;14.75;4.75;;;;;;;13.89;83.50;100046.63;5036390;28;20057;-77
2021/06/22 08:51:36;;;;;;;6.88;4.10;;;;;;;13.84;88.00;100055.03;5036530;28;20045;-76
2021/06/22 08:54:07;;;;;;;7.93;4.00;;;;;;;13.80;87.17;100034.81;5036959;28;20053;-78
2021/06/22 08:56:35;;;;;;;8.43;4.05;;;;;;;13.82;86.44;100051.63;5051619;28;20474;-77
2021/06/22 08:59:02;;;;;;;7.43;4.10;;;;;;;13.77;87.97;100053.81;5036006;28;20109;-77
2021/06/22 09:01:29;;;;;;;7.70;3.95;;;;;;;13.80;87.27;100050.91;5036157;28;20057;-78
2021/06/22 09:03:56;;;;;;;6.35;4.00;;;;;;;13.76;85.46;100040.50;5036544;28;20087;-78
2021/06/22 09:06:25;;;;;;;13.02;4.10;;;;;;;13.79;88.43;100059.06;5018760;28;20370;-77
2021/06/22 09:08:54;;;;;;;8.05;3.47;;;;;;;13.80;86.66;100050.03;5037096;28;20080;-77
2021/06/22 09:11:21;;;;;;;9.82;3.95;;;;;;;13.73;86.14;100052.31;5034888;28;20052;-78
2021/06/22 09:14:14;;;;;;;5.90;3.25;;;;;;;13.58;86.81;100049.84;5035212;28;20057;-77
2021/06/22 09:16:41;;;;;;;7.57;3.47;;;;;;;13.69;88.47;100064.28;5035659;28;20060;-76
2021/06/22 09:19:10;;;;;;;4.85;3.40;;;;;;;13.65;90.83;100044.88;5033938;28;20053;-78
2021/06/22 09:21:43;;;;;;;10.65;4.32;;;;;;;13.62;91.15;100058.50;5015025;28;20058;-77
2021/06/22 09:24:20;;;;;;;8.25;3.83;;;;;;;13.56;92.07;100049.09;5015707;28;20132;-77
2021/06/22 09:26:49;;;;;;;8.02;3.97;;;;;;;13.63;91.96;100062.06;5016087;28;20420;-78
2021/06/22 09:29:20;;;;;;;11.60;4.80;;;;;;;13.57;90.12;100060.69;5015973;28;20054;-78
2021/06/22 09:31:55;;;;;;;10.50;4.60;;;;;;;13.54;86.51;100051.06;5016200;28;20046;-77
2021/06/22 09:34:24;;;;;;;7.15;4.10;;;;;;;13.56;89.71;100064.31;5015807;28;20129;-76
2021/06/22 09:36:53;;;;;;;8.13;3.97;;;;;;;13.49;89.48;100073.81;5015786;28;20053;-77
2021/06/22 09:39:21;;;;;;;7.20;3.58;;;;;;;13.53;91.13;100065.44;5015570;28;20053;-76
2021/06/22 09:41:50;;;;;;;9.23;4.30;;;;;;;13.54;89.65;100066.28;5014626;28;20088;-77
2021/06/22 09:44:22;;;;;;;9.55;4.13;;;;;;;13.61;87.85;100061.31;5015653;28;20100;-77
2021/06/22 09:46:56;;;;;;;8.52;4.20;;;;;;;13.60;88.76;100063.13;5015816;28;20049;-76
2021/06/22 09:49:31;;;;;;;10.77;4.70;;;;;;;13.56;90.17;100059.81;5015800;28;20050;-77
2021/06/22 09:52:16;;;;;;;13.20;4.45;;;;;;;13.57;87.97;100056.16;5015821;28;20046;-77
2021/06/22 09:54:48;;;;;;;12.18;5.20;;;;;;;13.66;88.53;100064.47;5015656;28;20084;-76
2021/06/22 09:57:19;;;;;;;11.02;4.50;;;;;;;13.62;87.36;100066.53;5015720;28;20054;-77
2021/06/22 09:59:58;;;;;;;7.30;4.32;;;;;;;13.58;88.17;100068.59;5015659;28;20076;-77
2021/06/22 10:02:27;;;;;;;8.65;4.55;;;;;;;13.63;87.34;100070.97;5014966;28;20436;-76
2021/06/22 10:04:58;;;;;;;9.05;4.70;;;;;;;13.66;85.27;100068.03;5015299;28;20061;-77
2021/06/22 10:07:26;;;;;;;9.82;4.35;;;;;;;13.63;86.51;100065.59;5015491;28;20444;-80
2021/06/22 10:09:56;;;;;;;7.13;4.40;;;;;;;13.65;87.17;100057.41;5015388;28;20054;-76
2021/06/22 10:12:25;;;;;;;12.30;5.50;;;;;;;13.74;87.12;100067.47;5014169;28;20042;-76
2021/06/22 10:14:55;;;;;;;11.68;4.85;;;;;;;13.76;86.79;100051.22;5015100;28;20042;-79
2021/06/22 10:17:26;;;;;;;9.80;4.65;;;;;;;13.81;86.86;100067.84;5014114;28;20061;-77
2021/06/22 10:20:05;;;;;;;10.57;5.20;;;;;;;13.82;87.69;100061.50;5015311;28;20053;-77
2021/06/22 10:22:35;;;;;;;6.03;4.65;;;;;;;13.86;89.35;100071.03;5015478;28;20137;-77
2021/06/22 10:25:05;;;;;;;11.80;5.72;;;;;;;13.95;86.71;100075.69;5015335;28;20053;-76
2021/06/22 10:27:32;;;;;;;9.95;6.07;;;;;;;14.02;87.99;100080.56;5015000;28;20718;-77
2021/06/22 10:30:02;;;;;;;16.23;6.28;;;;;;;13.98;88.46;100091.56;5015233;28;20076;-76
2021/06/22 10:32:31;;;;;;;7.32;5.70;;;;;;;13.96;88.78;100087.28;5013715;28;20141;-76
2021/06/22 10:35:13;;;;;;;9.02;5.60;;;;;;;14.07;89.73;100089.13;5016219;28;20394;-77
2021/06/22 10:37:56;;;;;;;14.35;5.30;;;;;;;14.10;86.59;100079.03;5018699;28;20058;-77
2021/06/22 10:40:26;;;;;;;12.05;6.00;;;;;;;14.09;87.05;100088.03;5017947;28;20096;-76
2021/06/22 10:43:11;;;;;;;10.25;5.50;;;;;;;14.13;86.78;100077.94;5018836;28;20073;-82
2021/06/22 10:45:55;;;;;;;10.75;6.65;;;;;;;14.20;88.70;100079.16;5018688;28;20081;-79
2021/06/22 10:48:22;;;;;;;12.60;7.63;;;;;;;14.14;86.74;100071.59;5018034;28;20054;-79
2021/06/22 10:50:49;;;;;;;14.43;9.27;;;;;;;14.23;86.52;100062.81;5018694;28;20050;-79
2021/06/22 10:53:15;;;;;;;14.25;9.15;;;;;;;14.31;87.95;100081.00;5018815;28;20054;-79
2021/06/22 10:55:55;;;;;;;13.70;10.55;;;;;;;14.39;87.80;100081.25;5017868;28;20330;-79
2021/06/22 10:58:22;;;;;;;18.63;10.90;;;;;;;14.40;87.70;100080.28;5017646;28;20111;-79
2021/06/22 11:00:50;;;;;;;20.23;10.77;;;;;;;14.50;88.01;100082.25;5018268;28;20065;-80
2021/06/22 11:03:24;;;;;;;17.50;11.40;;;;;;;14.47;86.00;100077.97;5017484;28;20049;-79
2021/06/22 11:06:03;;;;;;;17.00;11.35;;;;;;;14.44;86.93;100083.56;5018293;28;20089;-80
2021/06/22 11:08:34;;;;;;;17.17;10.65;;;;;;;14.40;82.94;100090.19;5018494;28;20057;-79
2021/06/22 11:11:07;;;;;;;17.05;10.02;;;;;;;14.45;85.24;100087.13;5033449;28;20089;-82
2021/06/22 11:13:37;;;;;;;16.13;10.48;;;;;;;14.45;87.19;100088.00;5018248;28;20045;-83
2021/06/22 11:16:21;;;;;;;18.92;10.68;;;;;;;14.48;86.57;100093.09;5018382;28;20049;-79
2021/06/22 11:21:26;;;;;;;16.10;11.68;;;;;;;14.45;85.70;100093.38;5037546;28;20118;-80
2021/06/22 11:24:15;;;;;;;15.23;11.23;;;;;;;14.47;85.43;100094.09;5038317;28;20049;-79
2021/06/22 11:26:44;;;;;;;16.23;10.35;;;;;;;14.46;84.36;100095.06;5038377;28;20053;-82